sensor_id;sensor_type;location;lat;lon;timestamp;temperature;humidity
51029;DHT22;37054;52.054;8.600;2023-08-06T00:01:43;19.00;70.70
51029;DHT22;37054;52.054;8.600;2023-08-06T00:04:08;19.00;70.50
51029;DHT22;37054;52.054;8.600;2023-08-06T00:06:34;19.00;70.50
51029;DHT22;37054;52.054;8.600;2023-08-06T00:08:59;18.90;70.40
51029;DHT22;37054;52.054;8.600;2023-08-06T00:11:25;18.90;70.60
51029;DHT22;37054;52.054;8.600;2023-08-06T00:13:50;18.90;70.70
51029;DHT22;37054;52.054;8.600;2023-08-06T00:16:16;18.90;70.80
51029;DHT22;37054;52.054;8.600;2023-08-06T00:18:41;18.90;70.80
51029;DHT22;37054;52.054;8.600;2023-08-06T00:21:06;18.90;70.90
51029;DHT22;37054;52.054;8.600;2023-08-06T00:23:32;18.90;70.80
51029;DHT22;37054;52.054;8.600;2023-08-06T00:25:57;18.90;70.80
51029;DHT22;37054;52.054;8.600;2023-08-06T00:28:23;18.90;71.00
51029;DHT22;37054;52.054;8.600;2023-08-06T00:30:55;19.00;71.10
51029;DHT22;37054;52.054;8.600;2023-08-06T00:33:23;19.00;71.10
51029;DHT22;37054;52.054;8.600;2023-08-06T00:35:49;19.00;71.10
51029;DHT22;37054;52.054;8.600;2023-08-06T00:38:14;19.00;71.10
51029;DHT22;37054;52.054;8.600;2023-08-06T00:40:40;19.10;71.20
51029;DHT22;37054;52.054;8.600;2023-08-06T00:43:05;19.10;71.30
51029;DHT22;37054;52.054;8.600;2023-08-06T00:45:31;19.10;71.20
51029;DHT22;37054;52.054;8.600;2023-08-06T00:47:59;19.20;71.20
51029;DHT22;37054;52.054;8.600;2023-08-06T00:50:25;19.10;71.20
51029;DHT22;37054;52.054;8.600;2023-08-06T00:52:50;19.10;71.20
51029;DHT22;37054;52.054;8.600;2023-08-06T00:55:16;19.10;71.30
51029;DHT22;37054;52.054;8.600;2023-08-06T00:57:41;19.10;71.30
51029;DHT22;37054;52.054;8.600;2023-08-06T01:00:07;19.10;71.30
51029;DHT22;37054;52.054;8.600;2023-08-06T01:02:33;19.10;71.30
51029;DHT22;37054;52.054;8.600;2023-08-06T01:04:58;19.20;71.20
51029;DHT22;37054;52.054;8.600;2023-08-06T01:07:28;19.20;71.30
51029;DHT22;37054;52.054;8.600;2023-08-06T01:12:45;19.20;71.30
51029;DHT22;37054;52.054;8.600;2023-08-06T01:15:15;19.20;71.40
51029;DHT22;37054;52.054;8.600;2023-08-06T01:17:41;19.20;71.50
51029;DHT22;37054;52.054;8.600;2023-08-06T01:20:06;19.20;71.20
51029;DHT22;37054;52.054;8.600;2023-08-06T01:22:32;19.20;71.40
51029;DHT22;37054;52.054;8.600;2023-08-06T01:24:57;19.20;71.30
51029;DHT22;37054;52.054;8.600;2023-08-06T01:27:25;19.30;71.30
51029;DHT22;37054;52.054;8.600;2023-08-06T01:29:56;19.30;71.20
51029;DHT22;37054;52.054;8.600;2023-08-06T01:32:23;19.30;71.20
51029;DHT22;37054;52.054;8.600;2023-08-06T01:34:50;19.30;71.30
51029;DHT22;37054;52.054;8.600;2023-08-06T01:37:16;19.30;71.30
51029;DHT22;37054;52.054;8.600;2023-08-06T01:39:44;19.30;71.30
51029;DHT22;37054;52.054;8.600;2023-08-06T01:42:09;19.30;71.20
51029;DHT22;37054;52.054;8.600;2023-08-06T01:44:35;19.30;71.20
51029;DHT22;37054;52.054;8.600;2023-08-06T01:47:00;19.30;71.20
51029;DHT22;37054;52.054;8.600;2023-08-06T01:49:26;19.30;71.10
51029;DHT22;37054;52.054;8.600;2023-08-06T01:51:51;19.30;71.10
51029;DHT22;37054;52.054;8.600;2023-08-06T01:54:17;19.30;71.10
51029;DHT22;37054;52.054;8.600;2023-08-06T01:56:42;19.40;71.20
51029;DHT22;37054;52.054;8.600;2023-08-06T01:59:08;19.30;71.20
51029;DHT22;37054;52.054;8.600;2023-08-06T02:01:33;19.30;71.20
51029;DHT22;37054;52.054;8.600;2023-08-06T02:03:59;19.30;71.20
51029;DHT22;37054;52.054;8.600;2023-08-06T02:06:24;19.30;71.20
51029;DHT22;37054;52.054;8.600;2023-08-06T02:08:49;19.40;71.20
51029;DHT22;37054;52.054;8.600;2023-08-06T02:11:15;19.40;71.20
51029;DHT22;37054;52.054;8.600;2023-08-06T02:13:40;19.40;71.10
51029;DHT22;37054;52.054;8.600;2023-08-06T02:16:09;19.40;71.10
51029;DHT22;37054;52.054;8.600;2023-08-06T02:18:34;19.30;71.10
51029;DHT22;37054;52.054;8.600;2023-08-06T02:21:00;19.30;71.00
51029;DHT22;37054;52.054;8.600;2023-08-06T02:23:25;19.30;70.70
51029;DHT22;37054;52.054;8.600;2023-08-06T02:26:01;19.20;70.40
51029;DHT22;37054;52.054;8.600;2023-08-06T02:28:26;19.10;70.10
51029;DHT22;37054;52.054;8.600;2023-08-06T02:30:52;19.10;69.80
51029;DHT22;37054;52.054;8.600;2023-08-06T02:33:17;18.90;69.60
51029;DHT22;37054;52.054;8.600;2023-08-06T02:35:43;18.80;69.60
51029;DHT22;37054;52.054;8.600;2023-08-06T02:38:08;18.80;69.40
51029;DHT22;37054;52.054;8.600;2023-08-06T02:40:34;18.70;69.30
51029;DHT22;37054;52.054;8.600;2023-08-06T02:42:59;18.60;69.30
51029;DHT22;37054;52.054;8.600;2023-08-06T02:45:25;18.50;69.30
51029;DHT22;37054;52.054;8.600;2023-08-06T02:47:50;18.40;69.10
51029;DHT22;37054;52.054;8.600;2023-08-06T02:50:16;18.30;69.00
51029;DHT22;37054;52.054;8.600;2023-08-06T02:52:41;18.30;68.90
51029;DHT22;37054;52.054;8.600;2023-08-06T02:55:06;18.20;68.50
51029;DHT22;37054;52.054;8.600;2023-08-06T02:57:32;18.10;68.40
51029;DHT22;37054;52.054;8.600;2023-08-06T02:59:57;18.00;68.70
51029;DHT22;37054;52.054;8.600;2023-08-06T03:02:23;17.90;68.90
51029;DHT22;37054;52.054;8.600;2023-08-06T03:04:48;17.90;69.20
51029;DHT22;37054;52.054;8.600;2023-08-06T03:07:14;17.90;69.20
51029;DHT22;37054;52.054;8.600;2023-08-06T03:09:39;17.80;69.10
51029;DHT22;37054;52.054;8.600;2023-08-06T03:12:05;17.80;69.10
51029;DHT22;37054;52.054;8.600;2023-08-06T03:14:30;17.70;68.90
51029;DHT22;37054;52.054;8.600;2023-08-06T03:16:56;17.70;68.90
51029;DHT22;37054;52.054;8.600;2023-08-06T03:19:21;17.70;68.80
51029;DHT22;37054;52.054;8.600;2023-08-06T03:21:47;17.60;68.90
51029;DHT22;37054;52.054;8.600;2023-08-06T03:24:13;17.50;68.90
51029;DHT22;37054;52.054;8.600;2023-08-06T03:26:38;17.50;69.20
51029;DHT22;37054;52.054;8.600;2023-08-06T03:29:04;17.50;69.30
51029;DHT22;37054;52.054;8.600;2023-08-06T03:31:29;17.50;69.40
51029;DHT22;37054;52.054;8.600;2023-08-06T03:33:55;17.40;69.50
51029;DHT22;37054;52.054;8.600;2023-08-06T03:36:20;17.40;69.20
51029;DHT22;37054;52.054;8.600;2023-08-06T03:38:46;17.30;68.90
51029;DHT22;37054;52.054;8.600;2023-08-06T03:41:11;17.30;68.90
51029;DHT22;37054;52.054;8.600;2023-08-06T03:43:36;17.30;68.90
51029;DHT22;37054;52.054;8.600;2023-08-06T03:46:02;17.20;69.00
51029;DHT22;37054;52.054;8.600;2023-08-06T03:48:27;17.20;69.20
51029;DHT22;37054;52.054;8.600;2023-08-06T03:50:53;17.20;69.20
51029;DHT22;37054;52.054;8.600;2023-08-06T03:53:18;17.20;69.60
51029;DHT22;37054;52.054;8.600;2023-08-06T03:55:44;17.20;69.90
51029;DHT22;37054;52.054;8.600;2023-08-06T03:58:09;17.20;70.00
51029;DHT22;37054;52.054;8.600;2023-08-06T04:00:35;17.20;69.70
51029;DHT22;37054;52.054;8.600;2023-08-06T04:03:00;17.20;69.40
51029;DHT22;37054;52.054;8.600;2023-08-06T04:05:26;17.10;69.10
51029;DHT22;37054;52.054;8.600;2023-08-06T04:07:51;17.10;69.10
51029;DHT22;37054;52.054;8.600;2023-08-06T04:10:16;17.00;69.20
51029;DHT22;37054;52.054;8.600;2023-08-06T04:12:42;17.00;69.40
51029;DHT22;37054;52.054;8.600;2023-08-06T04:15:08;17.00;69.50
51029;DHT22;37054;52.054;8.600;2023-08-06T04:17:33;17.00;69.90
51029;DHT22;37054;52.054;8.600;2023-08-06T04:19:59;17.00;70.10
51029;DHT22;37054;52.054;8.600;2023-08-06T04:22:24;17.00;70.10
51029;DHT22;37054;52.054;8.600;2023-08-06T04:24:50;17.00;70.50
51029;DHT22;37054;52.054;8.600;2023-08-06T04:27:16;17.10;70.90
51029;DHT22;37054;52.054;8.600;2023-08-06T04:29:41;17.30;71.30
51029;DHT22;37054;52.054;8.600;2023-08-06T04:32:07;17.30;71.60
51029;DHT22;37054;52.054;8.600;2023-08-06T04:34:34;17.40;71.80
51029;DHT22;37054;52.054;8.600;2023-08-06T04:37:00;17.50;71.90
51029;DHT22;37054;52.054;8.600;2023-08-06T04:39:25;17.70;71.90
51029;DHT22;37054;52.054;8.600;2023-08-06T04:41:51;17.70;72.00
51029;DHT22;37054;52.054;8.600;2023-08-06T04:44:16;17.80;72.10
51029;DHT22;37054;52.054;8.600;2023-08-06T04:46:41;18.00;72.20
51029;DHT22;37054;52.054;8.600;2023-08-06T04:49:07;18.10;72.20
51029;DHT22;37054;52.054;8.600;2023-08-06T04:51:32;18.30;72.10
51029;DHT22;37054;52.054;8.600;2023-08-06T04:53:58;18.30;72.00
51029;DHT22;37054;52.054;8.600;2023-08-06T04:56:23;18.40;72.00
51029;DHT22;37054;52.054;8.600;2023-08-06T04:58:49;18.50;71.90
51029;DHT22;37054;52.054;8.600;2023-08-06T05:01:15;18.60;71.80
51029;DHT22;37054;52.054;8.600;2023-08-06T05:03:40;18.70;71.80
51029;DHT22;37054;52.054;8.600;2023-08-06T05:06:05;18.70;71.90
51029;DHT22;37054;52.054;8.600;2023-08-06T05:08:31;18.80;72.00
51029;DHT22;37054;52.054;8.600;2023-08-06T05:10:56;18.90;71.90
51029;DHT22;37054;52.054;8.600;2023-08-06T05:13:22;18.90;71.90
51029;DHT22;37054;52.054;8.600;2023-08-06T05:15:47;19.00;71.90
51029;DHT22;37054;52.054;8.600;2023-08-06T05:18:13;19.10;72.00
51029;DHT22;37054;52.054;8.600;2023-08-06T05:20:39;19.10;72.00
51029;DHT22;37054;52.054;8.600;2023-08-06T05:23:04;19.20;72.10
51029;DHT22;37054;52.054;8.600;2023-08-06T05:25:30;19.30;72.10
51029;DHT22;37054;52.054;8.600;2023-08-06T05:27:55;19.40;72.10
51029;DHT22;37054;52.054;8.600;2023-08-06T05:30:21;19.40;72.20
51029;DHT22;37054;52.054;8.600;2023-08-06T05:32:46;19.50;72.20
51029;DHT22;37054;52.054;8.600;2023-08-06T05:35:12;19.60;72.20
51029;DHT22;37054;52.054;8.600;2023-08-06T05:37:37;19.70;72.30
51029;DHT22;37054;52.054;8.600;2023-08-06T05:40:03;19.80;72.40
51029;DHT22;37054;52.054;8.600;2023-08-06T05:42:29;20.00;72.50
51029;DHT22;37054;52.054;8.600;2023-08-06T05:44:54;20.20;72.60
51029;DHT22;37054;52.054;8.600;2023-08-06T05:47:20;20.30;72.60
51029;DHT22;37054;52.054;8.600;2023-08-06T05:49:45;20.50;72.60
51029;DHT22;37054;52.054;8.600;2023-08-06T05:52:11;20.60;72.50
51029;DHT22;37054;52.054;8.600;2023-08-06T05:54:36;20.80;72.70
51029;DHT22;37054;52.054;8.600;2023-08-06T05:57:02;21.00;72.90
51029;DHT22;37054;52.054;8.600;2023-08-06T05:59:28;21.40;73.60
51029;DHT22;37054;52.054;8.600;2023-08-06T06:01:53;21.70;73.30
51029;DHT22;37054;52.054;8.600;2023-08-06T06:04:18;22.00;72.70
51029;DHT22;37054;52.054;8.600;2023-08-06T06:06:44;22.10;72.50
51029;DHT22;37054;52.054;8.600;2023-08-06T06:09:10;22.10;72.20
51029;DHT22;37054;52.054;8.600;2023-08-06T06:11:35;22.20;72.20
51029;DHT22;37054;52.054;8.600;2023-08-06T06:14:01;22.30;72.10
51029;DHT22;37054;52.054;8.600;2023-08-06T06:16:26;22.30;71.90
51029;DHT22;37054;52.054;8.600;2023-08-06T06:18:52;22.40;71.90
51029;DHT22;37054;52.054;8.600;2023-08-06T06:21:17;22.30;71.30
51029;DHT22;37054;52.054;8.600;2023-08-06T06:23:42;22.30;71.50
51029;DHT22;37054;52.054;8.600;2023-08-06T06:26:08;22.40;72.00
51029;DHT22;37054;52.054;8.600;2023-08-06T06:28:35;22.60;73.00
51029;DHT22;37054;52.054;8.600;2023-08-06T06:31:00;23.10;73.40
51029;DHT22;37054;52.054;8.600;2023-08-06T06:33:26;23.70;74.10
51029;DHT22;37054;52.054;8.600;2023-08-06T06:35:52;24.30;73.30
51029;DHT22;37054;52.054;8.600;2023-08-06T06:38:17;24.70;72.60
51029;DHT22;37054;52.054;8.600;2023-08-06T06:40:43;25.00;72.00
51029;DHT22;37054;52.054;8.600;2023-08-06T06:43:08;25.20;70.90
51029;DHT22;37054;52.054;8.600;2023-08-06T06:45:34;25.40;71.50
51029;DHT22;37054;52.054;8.600;2023-08-06T06:47:59;25.80;72.10
51029;DHT22;37054;52.054;8.600;2023-08-06T06:50:25;26.30;72.00
51029;DHT22;37054;52.054;8.600;2023-08-06T06:52:51;26.80;71.60
51029;DHT22;37054;52.054;8.600;2023-08-06T06:55:17;27.00;69.80
51029;DHT22;37054;52.054;8.600;2023-08-06T06:57:42;26.90;68.80
51029;DHT22;37054;52.054;8.600;2023-08-06T07:00:08;26.80;69.10
51029;DHT22;37054;52.054;8.600;2023-08-06T07:02:33;27.00;70.90
51029;DHT22;37054;52.054;8.600;2023-08-06T07:04:59;27.40;71.20
51029;DHT22;37054;52.054;8.600;2023-08-06T07:07:24;28.00;71.00
51029;DHT22;37054;52.054;8.600;2023-08-06T07:09:50;28.50;71.10
51029;DHT22;37054;52.054;8.600;2023-08-06T07:12:15;28.80;69.80
51029;DHT22;37054;52.054;8.600;2023-08-06T07:14:41;29.20;69.80
51029;DHT22;37054;52.054;8.600;2023-08-06T07:17:06;29.50;69.20
51029;DHT22;37054;52.054;8.600;2023-08-06T07:19:31;29.40;66.60
51029;DHT22;37054;52.054;8.600;2023-08-06T07:21:57;29.20;65.70
51029;DHT22;37054;52.054;8.600;2023-08-06T07:24:22;29.10;66.60
51029;DHT22;37054;52.054;8.600;2023-08-06T07:26:48;29.10;67.60
51029;DHT22;37054;52.054;8.600;2023-08-06T07:29:13;29.40;69.70
51029;DHT22;37054;52.054;8.600;2023-08-06T07:31:45;30.10;71.30
51029;DHT22;37054;52.054;8.600;2023-08-06T07:34:10;30.80;69.70
51029;DHT22;37054;52.054;8.600;2023-08-06T07:36:35;31.30;69.40
51029;DHT22;37054;52.054;8.600;2023-08-06T07:39:01;31.90;69.90
51029;DHT22;37054;52.054;8.600;2023-08-06T07:41:26;32.40;68.70
51029;DHT22;37054;52.054;8.600;2023-08-06T07:43:52;32.60;68.20
51029;DHT22;37054;52.054;8.600;2023-08-06T07:46:17;32.90;69.10
51029;DHT22;37054;52.054;8.600;2023-08-06T07:48:43;33.10;68.20
51029;DHT22;37054;52.054;8.600;2023-08-06T07:51:09;33.10;67.40
51029;DHT22;37054;52.054;8.600;2023-08-06T07:53:34;33.00;67.50
51029;DHT22;37054;52.054;8.600;2023-08-06T07:56:00;32.70;66.50
51029;DHT22;37054;52.054;8.600;2023-08-06T07:58:27;32.50;67.30
51029;DHT22;37054;52.054;8.600;2023-08-06T08:00:54;32.50;67.80
51029;DHT22;37054;52.054;8.600;2023-08-06T08:03:20;32.50;67.30
51029;DHT22;37054;52.054;8.600;2023-08-06T08:05:45;32.70;67.90
51029;DHT22;37054;52.054;8.600;2023-08-06T08:08:11;32.80;67.80
51029;DHT22;37054;52.054;8.600;2023-08-06T08:10:37;33.00;67.30
51029;DHT22;37054;52.054;8.600;2023-08-06T08:13:03;33.10;66.10
51029;DHT22;37054;52.054;8.600;2023-08-06T08:15:30;33.20;66.00
51029;DHT22;37054;52.054;8.600;2023-08-06T08:17:55;33.30;65.20
51029;DHT22;37054;52.054;8.600;2023-08-06T08:20:21;33.20;65.00
51029;DHT22;37054;52.054;8.600;2023-08-06T08:22:47;32.90;63.50
51029;DHT22;37054;52.054;8.600;2023-08-06T08:25:12;32.60;64.40
51029;DHT22;37054;52.054;8.600;2023-08-06T08:27:38;32.20;64.50
51029;DHT22;37054;52.054;8.600;2023-08-06T08:30:04;32.00;63.30
51029;DHT22;37054;52.054;8.600;2023-08-06T08:32:29;31.70;63.00
51029;DHT22;37054;52.054;8.600;2023-08-06T08:34:55;31.40;63.30
51029;DHT22;37054;52.054;8.600;2023-08-06T08:37:20;31.20;64.20
51029;DHT22;37054;52.054;8.600;2023-08-06T08:39:46;31.10;65.30
51029;DHT22;37054;52.054;8.600;2023-08-06T08:42:11;31.00;65.40
51029;DHT22;37054;52.054;8.600;2023-08-06T08:44:37;30.80;65.30
51029;DHT22;37054;52.054;8.600;2023-08-06T08:47:05;30.70;65.50
51029;DHT22;37054;52.054;8.600;2023-08-06T08:49:31;30.60;64.00
51029;DHT22;37054;52.054;8.600;2023-08-06T08:51:57;30.40;64.40
51029;DHT22;37054;52.054;8.600;2023-08-06T08:54:24;30.30;64.90
51029;DHT22;37054;52.054;8.600;2023-08-06T08:56:50;30.20;65.70
51029;DHT22;37054;52.054;8.600;2023-08-06T08:59:16;30.20;65.60
51029;DHT22;37054;52.054;8.600;2023-08-06T09:01:41;30.10;66.30
51029;DHT22;37054;52.054;8.600;2023-08-06T09:04:08;30.00;65.70
51029;DHT22;37054;52.054;8.600;2023-08-06T09:06:35;29.80;64.80
51029;DHT22;37054;52.054;8.600;2023-08-06T09:11:30;29.40;62.50
51029;DHT22;37054;52.054;8.600;2023-08-06T09:14:05;29.40;63.20
51029;DHT22;37054;52.054;8.600;2023-08-06T09:16:33;29.40;63.90
51029;DHT22;37054;52.054;8.600;2023-08-06T09:19:06;29.60;66.40
51029;DHT22;37054;52.054;8.600;2023-08-06T09:21:31;29.80;65.60
51029;DHT22;37054;52.054;8.600;2023-08-06T09:23:58;30.20;66.10
51029;DHT22;37054;52.054;8.600;2023-08-06T09:26:32;30.50;65.20
51029;DHT22;37054;52.054;8.600;2023-08-06T09:28:59;30.70;61.40
51029;DHT22;37054;52.054;8.600;2023-08-06T09:31:24;31.00;61.50
51029;DHT22;37054;52.054;8.600;2023-08-06T09:33:50;31.30;60.80
51029;DHT22;37054;52.054;8.600;2023-08-06T09:36:15;31.40;58.40
51029;DHT22;37054;52.054;8.600;2023-08-06T09:38:41;31.50;55.30
51029;DHT22;37054;52.054;8.600;2023-08-06T09:41:07;31.50;54.60
51029;DHT22;37054;52.054;8.600;2023-08-06T09:43:39;31.60;53.60
51029;DHT22;37054;52.054;8.600;2023-08-06T09:46:10;31.70;52.10
51029;DHT22;37054;52.054;8.600;2023-08-06T09:48:36;31.70;48.80
51029;DHT22;37054;52.054;8.600;2023-08-06T09:51:01;31.60;46.30
51029;DHT22;37054;52.054;8.600;2023-08-06T09:53:27;32.00;47.10
51029;DHT22;37054;52.054;8.600;2023-08-06T09:55:53;32.50;45.50
51029;DHT22;37054;52.054;8.600;2023-08-06T09:58:20;33.20;45.20
51029;DHT22;37054;52.054;8.600;2023-08-06T10:00:49;33.60;43.20
51029;DHT22;37054;52.054;8.600;2023-08-06T10:03:14;34.10;42.20
51029;DHT22;37054;52.054;8.600;2023-08-06T10:05:40;34.50;40.60
51029;DHT22;37054;52.054;8.600;2023-08-06T10:08:06;34.80;40.30
51029;DHT22;37054;52.054;8.600;2023-08-06T10:10:32;35.10;37.30
51029;DHT22;37054;52.054;8.600;2023-08-06T10:12:58;35.20;36.80
51029;DHT22;37054;52.054;8.600;2023-08-06T10:15:25;35.50;37.70
51029;DHT22;37054;52.054;8.600;2023-08-06T10:17:51;35.80;35.80
51029;DHT22;37054;52.054;8.600;2023-08-06T10:20:18;35.90;33.90
51029;DHT22;37054;52.054;8.600;2023-08-06T10:22:46;36.00;34.60
51029;DHT22;37054;52.054;8.600;2023-08-06T10:25:24;36.20;33.70
51029;DHT22;37054;52.054;8.600;2023-08-06T10:30:22;36.00;33.60
51029;DHT22;37054;52.054;8.600;2023-08-06T10:32:52;36.00;32.70
51029;DHT22;37054;52.054;8.600;2023-08-06T10:38:12;36.70;33.20
51029;DHT22;37054;52.054;8.600;2023-08-06T10:40:41;37.10;32.20
51029;DHT22;37054;52.054;8.600;2023-08-06T10:43:07;37.10;31.40
51029;DHT22;37054;52.054;8.600;2023-08-06T10:45:34;36.80;30.60
51029;DHT22;37054;52.054;8.600;2023-08-06T10:48:00;36.30;30.80
51029;DHT22;37054;52.054;8.600;2023-08-06T10:50:25;35.90;31.10
51029;DHT22;37054;52.054;8.600;2023-08-06T10:52:51;35.90;32.00
51029;DHT22;37054;52.054;8.600;2023-08-06T10:55:24;36.10;31.40
51029;DHT22;37054;52.054;8.600;2023-08-06T10:57:50;36.30;30.60
51029;DHT22;37054;52.054;8.600;2023-08-06T11:00:16;36.70;31.10
51029;DHT22;37054;52.054;8.600;2023-08-06T11:02:41;37.20;30.80
51029;DHT22;37054;52.054;8.600;2023-08-06T11:05:07;37.30;29.40
51029;DHT22;37054;52.054;8.600;2023-08-06T11:07:33;37.10;29.00
51029;DHT22;37054;52.054;8.600;2023-08-06T11:10:17;36.50;28.00
51029;DHT22;37054;52.054;8.600;2023-08-06T11:12:42;36.00;28.50
51029;DHT22;37054;52.054;8.600;2023-08-06T11:15:08;35.50;29.50
51029;DHT22;37054;52.054;8.600;2023-08-06T11:17:34;35.30;30.10
51029;DHT22;37054;52.054;8.600;2023-08-06T11:20:00;35.20;30.20
51029;DHT22;37054;52.054;8.600;2023-08-06T11:22:26;35.10;30.70
51029;DHT22;37054;52.054;8.600;2023-08-06T11:24:52;35.20;31.10
51029;DHT22;37054;52.054;8.600;2023-08-06T11:27:18;35.50;30.90
51029;DHT22;37054;52.054;8.600;2023-08-06T11:29:43;35.60;30.70
51029;DHT22;37054;52.054;8.600;2023-08-06T11:32:09;35.70;30.40
51029;DHT22;37054;52.054;8.600;2023-08-06T11:34:35;35.80;30.80
51029;DHT22;37054;52.054;8.600;2023-08-06T11:37:02;36.00;30.50
51029;DHT22;37054;52.054;8.600;2023-08-06T11:39:28;36.00;30.50
51029;DHT22;37054;52.054;8.600;2023-08-06T11:41:54;35.90;29.60
51029;DHT22;37054;52.054;8.600;2023-08-06T11:44:19;35.50;29.10
51029;DHT22;37054;52.054;8.600;2023-08-06T11:46:51;35.00;29.60
51029;DHT22;37054;52.054;8.600;2023-08-06T11:54:37;33.60;31.10
51029;DHT22;37054;52.054;8.600;2023-08-06T11:57:03;33.20;31.60
51029;DHT22;37054;52.054;8.600;2023-08-06T11:59:28;32.80;31.40
51029;DHT22;37054;52.054;8.600;2023-08-06T12:01:54;32.30;32.20
51029;DHT22;37054;52.054;8.600;2023-08-06T12:04:19;32.00;32.90
51029;DHT22;37054;52.054;8.600;2023-08-06T12:06:45;31.80;33.50
51029;DHT22;37054;52.054;8.600;2023-08-06T12:09:10;31.50;33.40
51029;DHT22;37054;52.054;8.600;2023-08-06T12:11:36;31.30;33.60
51029;DHT22;37054;52.054;8.600;2023-08-06T12:14:01;31.10;33.90
51029;DHT22;37054;52.054;8.600;2023-08-06T12:16:27;31.00;34.40
51029;DHT22;37054;52.054;8.600;2023-08-06T12:18:53;31.00;34.90
51029;DHT22;37054;52.054;8.600;2023-08-06T12:21:18;30.90;35.10
51029;DHT22;37054;52.054;8.600;2023-08-06T12:23:43;30.90;35.40
51029;DHT22;37054;52.054;8.600;2023-08-06T12:26:09;31.10;35.70
51029;DHT22;37054;52.054;8.600;2023-08-06T12:28:34;31.20;35.40
51029;DHT22;37054;52.054;8.600;2023-08-06T12:31:00;31.30;35.40
51029;DHT22;37054;52.054;8.600;2023-08-06T12:33:25;31.30;35.50
51029;DHT22;37054;52.054;8.600;2023-08-06T12:35:51;31.30;35.10
51029;DHT22;37054;52.054;8.600;2023-08-06T12:38:19;31.30;35.00
51029;DHT22;37054;52.054;8.600;2023-08-06T12:40:45;31.30;35.00
51029;DHT22;37054;52.054;8.600;2023-08-06T12:43:10;31.20;34.80
51029;DHT22;37054;52.054;8.600;2023-08-06T12:45:36;31.20;35.20
51029;DHT22;37054;52.054;8.600;2023-08-06T12:48:02;31.30;35.40
51029;DHT22;37054;52.054;8.600;2023-08-06T12:50:27;31.50;34.90
51029;DHT22;37054;52.054;8.600;2023-08-06T12:52:53;31.50;34.60
51029;DHT22;37054;52.054;8.600;2023-08-06T12:55:18;31.40;34.10
51029;DHT22;37054;52.054;8.600;2023-08-06T12:57:44;31.50;34.40
51029;DHT22;37054;52.054;8.600;2023-08-06T13:00:09;31.70;35.10
51029;DHT22;37054;52.054;8.600;2023-08-06T13:02:35;32.10;34.70
51029;DHT22;37054;52.054;8.600;2023-08-06T13:05:00;32.30;33.70
51029;DHT22;37054;52.054;8.600;2023-08-06T13:07:30;32.50;33.90
51029;DHT22;37054;52.054;8.600;2023-08-06T13:09:56;32.60;33.30
51029;DHT22;37054;52.054;8.600;2023-08-06T13:12:21;32.70;33.00
51029;DHT22;37054;52.054;8.600;2023-08-06T13:14:48;32.60;32.40
51029;DHT22;37054;52.054;8.600;2023-08-06T13:17:13;32.60;32.00
51029;DHT22;37054;52.054;8.600;2023-08-06T13:19:39;32.60;32.00
51029;DHT22;37054;52.054;8.600;2023-08-06T13:22:05;32.70;31.50
51029;DHT22;37054;52.054;8.600;2023-08-06T13:24:33;32.70;31.40
51029;DHT22;37054;52.054;8.600;2023-08-06T13:27:00;32.90;31.70
51029;DHT22;37054;52.054;8.600;2023-08-06T13:29:25;33.30;31.70
51029;DHT22;37054;52.054;8.600;2023-08-06T13:31:51;33.50;31.50
51029;DHT22;37054;52.054;8.600;2023-08-06T13:34:17;33.60;31.70
51029;DHT22;37054;52.054;8.600;2023-08-06T13:36:42;33.60;31.70
51029;DHT22;37054;52.054;8.600;2023-08-06T13:39:08;33.30;31.40
51029;DHT22;37054;52.054;8.600;2023-08-06T13:41:33;32.90;31.90
51029;DHT22;37054;52.054;8.600;2023-08-06T13:43:59;32.30;35.20
51029;DHT22;37054;52.054;8.600;2023-08-06T13:46:24;31.20;40.30
51029;DHT22;37054;52.054;8.600;2023-08-06T13:48:50;29.90;47.40
51029;DHT22;37054;52.054;8.600;2023-08-06T13:51:18;28.80;52.60
51029;DHT22;37054;52.054;8.600;2023-08-06T13:53:43;27.90;56.60
51029;DHT22;37054;52.054;8.600;2023-08-06T13:56:09;27.30;58.00
51029;DHT22;37054;52.054;8.600;2023-08-06T13:58:35;26.80;59.80
51029;DHT22;37054;52.054;8.600;2023-08-06T14:01:01;26.20;60.40
51029;DHT22;37054;52.054;8.600;2023-08-06T14:03:26;25.80;61.70
51029;DHT22;37054;52.054;8.600;2023-08-06T14:05:52;25.30;62.10
51029;DHT22;37054;52.054;8.600;2023-08-06T14:08:20;24.80;62.90
51029;DHT22;37054;52.054;8.600;2023-08-06T14:10:46;24.30;63.20
51029;DHT22;37054;52.054;8.600;2023-08-06T14:13:11;24.00;64.00
51029;DHT22;37054;52.054;8.600;2023-08-06T14:15:37;23.70;64.70
51029;DHT22;37054;52.054;8.600;2023-08-06T14:18:05;23.40;65.50
51029;DHT22;37054;52.054;8.600;2023-08-06T14:20:31;23.20;66.10
51029;DHT22;37054;52.054;8.600;2023-08-06T14:22:56;23.00;66.50
51029;DHT22;37054;52.054;8.600;2023-08-06T14:25:22;22.90;67.20
51029;DHT22;37054;52.054;8.600;2023-08-06T14:27:47;22.80;67.80
51029;DHT22;37054;52.054;8.600;2023-08-06T14:30:13;22.80;68.00
51029;DHT22;37054;52.054;8.600;2023-08-06T14:32:38;22.70;68.50
51029;DHT22;37054;52.054;8.600;2023-08-06T14:35:04;22.80;69.00
51029;DHT22;37054;52.054;8.600;2023-08-06T14:37:30;22.80;69.00
51029;DHT22;37054;52.054;8.600;2023-08-06T14:39:55;22.80;69.10
51029;DHT22;37054;52.054;8.600;2023-08-06T14:42:21;22.80;69.50
51029;DHT22;37054;52.054;8.600;2023-08-06T14:44:46;22.90;69.80
51029;DHT22;37054;52.054;8.600;2023-08-06T14:47:12;23.00;69.80
51029;DHT22;37054;52.054;8.600;2023-08-06T14:49:37;23.10;69.80
51029;DHT22;37054;52.054;8.600;2023-08-06T14:52:03;23.10;69.80
51029;DHT22;37054;52.054;8.600;2023-08-06T14:54:28;23.20;69.90
51029;DHT22;37054;52.054;8.600;2023-08-06T14:56:54;23.20;69.90
51029;DHT22;37054;52.054;8.600;2023-08-06T14:59:19;23.20;69.90
51029;DHT22;37054;52.054;8.600;2023-08-06T15:01:45;23.30;70.10
51029;DHT22;37054;52.054;8.600;2023-08-06T15:04:10;23.30;70.10
51029;DHT22;37054;52.054;8.600;2023-08-06T15:06:36;23.30;70.00
51029;DHT22;37054;52.054;8.600;2023-08-06T15:09:01;23.30;70.00
51029;DHT22;37054;52.054;8.600;2023-08-06T15:11:27;23.30;68.90
51029;DHT22;37054;52.054;8.600;2023-08-06T15:13:52;23.20;69.10
51029;DHT22;37054;52.054;8.600;2023-08-06T15:16:18;23.20;69.40
51029;DHT22;37054;52.054;8.600;2023-08-06T15:18:43;23.20;70.10
51029;DHT22;37054;52.054;8.600;2023-08-06T15:21:09;23.40;70.40
51029;DHT22;37054;52.054;8.600;2023-08-06T15:23:34;23.50;70.20
51029;DHT22;37054;52.054;8.600;2023-08-06T15:26:00;23.50;70.00
51029;DHT22;37054;52.054;8.600;2023-08-06T15:28:25;23.50;70.10
51029;DHT22;37054;52.054;8.600;2023-08-06T15:30:51;23.60;70.00
51029;DHT22;37054;52.054;8.600;2023-08-06T15:33:17;23.50;70.00
51029;DHT22;37054;52.054;8.600;2023-08-06T15:35:43;23.50;70.00
51029;DHT22;37054;52.054;8.600;2023-08-06T15:38:08;23.40;69.80